Terminal Aerodrome Forecast
Issued by NWS Louisville, KY

Home | Current Version | Previous Version | Text Only | Print | Product List | Glossary On
Versions: 1 2 3 4 5 6 7 8 9 10 11 12 13 14 15 16 17 18 19 20 21
067
FTUS43 KLMK 161127
TAFBWG
TAF
KBWG 161127Z 1612/1712 32014KT 6SM -SHRA BKN025 OVC035
     FM162100 35010KT P6SM BKN035
     FM170100 02006KT P6SM BKN050
     FM170600 06004KT P6SM BKN250=

USA.gov is the U.S. government's official web portal to all federal, state and local government web resources and services.